Flight Track Log - Related Links

Times and Time Zones

All times are in EDT time to prevent confusion due to time zone crossing. See the UAL906 flight status page for this flight to view local times or setup timezone preferences in your user account.

Time Position Orientation Groundspeed Altitude Reporting Facility
EDT Latitude Longitude Course Direction KTS MPH feet Rate Location/Type
Sat 07:12:17 AM 50.0420 8.5730 213° Southwest 120 138  Level FlightAware ADS-B
Sat 07:12:38 AM 50.0360 8.5500 248° West 175 201 1,364 Level FlightAware ADS-B
Sat 07:13:01 AM 50.0290 8.5200 250° West 195 224 1,000 2,743 Climbing FlightAware ADS-B
Sat 07:13:13 AM 50.0280 8.5030 265° West 195 224 1,600 2,667 Climbing FlightAware ADS-B
Sat 07:13:37 AM 50.0300 8.4710 276° West 192 221 2,600 2,318 Climbing FlightAware ADS-B
Sat 07:13:57 AM 50.0320 8.4440 277° West 190 219 3,300 1,941 Climbing FlightAware ADS-B
Sat 07:14:11 AM 50.0350 8.4250 284° West 199 229 3,700 1,154 Climbing FlightAware ADS-B
Sat 07:14:23 AM 50.0410 8.4110 304° West 217 250 3,800 818 Climbing FlightAware ADS-B
Sat 07:14:33 AM 50.0490 8.4000 319° Northwest 232 267 4,000 1,600 Climbing FlightAware ADS-B
Sat 07:14:53 AM 50.0680 8.3800 326° Northwest 241 277 4,600 1,350 Climbing FlightAware ADS-B
Sat 07:15:13 AM 50.0870 8.3570 322° Northwest 264 304 4,900 1,421 Climbing FlightAware ADS-B
Sat 07:15:31 AM 50.1040 8.3370 323° Northwest 272 313 5,500 2,000 Climbing FlightAware ADS-B
Sat 07:15:37 AM 50.1110 8.3320 335° Northwest 275 316 5,700 2,333 Climbing FlightAware ADS-B
Sat 07:15:49 AM 50.1270 8.3270 349° North 286 329 6,200 2,250 Climbing FlightAware ADS-B
Sat 07:15:53 AM 50.1320 8.3270 360° North 292 336 6,300 1,500 Climbing FlightAware ADS-B
Sat 07:16:01 AM 50.1430 8.3290 North 299 344 6,500 2,250 Climbing FlightAware ADS-B
Sat 07:16:09 AM 50.1540 8.3340 16° North 301 346 6,900 2,571 Climbing FlightAware ADS-B
Sat 07:16:29 AM 50.1810 8.3490 20° North 301 346 7,700 2,100 Climbing FlightAware ADS-B
Sat 07:16:49 AM 50.2060 8.3640 21° North 311 358 8,300 2,100 Climbing FlightAware ADS-B
Sat 07:17:09 AM 50.2340 8.3780 18° North 312 359 9,100 1,857 Climbing FlightAware ADS-B
Sat 07:17:31 AM 50.2650 8.3930 17° North 325 374 9,600 1,500 Climbing FlightAware ADS-B
Sat 07:18:05 AM 50.3160 8.4160 16° North 342 394 10,500 1,562 Climbing FlightAware ADS-B
Sat 07:18:44 AM 50.3750 8.4510 21° North 360 414 11,500 1,343 Climbing FlightAware ADS-B
Sat 07:19:12 AM 50.4220 8.4770 19° North 380 437 12,000 1,114 Climbing FlightAware ADS-B
Sat 07:19:54 AM 50.4910 8.5150 19° North 403 464 12,800 1,378 Climbing FlightAware ADS-B
Sat 07:20:26 AM 50.5480 8.5410 16° North 411 473 13,700 1,714 Climbing FlightAware ADS-B
Sat 07:21:04 AM 50.6150 8.5720 16° North 418 481 14,800 2,027 Climbing FlightAware ADS-B
Sat 07:21:40 AM 50.6850 8.6060 17° North 426 490 16,200 2,382 Climbing FlightAware ADS-B
Sat 07:22:12 AM 50.7460 8.6350 17° North 433 498 17,500 2,182 Climbing FlightAware ADS-B
Sat 07:22:46 AM 50.8100 8.6760 22° Northeast 446 513 18,600 1,846 Climbing FlightAware ADS-B
Sat 07:23:04 AM 50.8380 8.7100 37° Northeast 452 520 19,100 1,920 Climbing FlightAware ADS-B
Sat 07:23:36 AM 50.8810 8.7950 51° Northeast 458 527 20,200 1,941 Climbing FlightAware ADS-B
Sat 07:24:12 AM 50.9290 8.8970 53° Northeast 465 535 21,300 1,667 Climbing FlightAware ADS-B
Sat 07:24:48 AM 50.9750 8.9940 53° Northeast 470 541 22,200 1,457 Climbing FlightAware ADS-B
Sat 07:25:22 AM 51.0190 9.0860 53° Northeast 475 547 23,000 1,324 Climbing FlightAware ADS-B
Sat 07:25:56 AM 51.0620 9.1770 53° Northeast 480 552 23,700 1,179 Climbing FlightAware ADS-B
Sat 07:26:18 AM 51.0960 9.2400 49° Northeast 484 557 24,100 1,333 Climbing FlightAware ADS-B
Sat 07:26:32 AM 51.1220 9.2700 36° Northeast 482 555 24,500 1,400 Climbing FlightAware ADS-B
Sat 07:26:48 AM 51.1520 9.2930 26° Northeast 481 554 24,800 1,091 Climbing FlightAware ADS-B
Sat 07:27:27 AM 51.2420 9.3280 14° North 483 556 25,500 1,105 Climbing FlightAware ADS-B
Sat 07:28:04 AM 51.3210 9.3550 12° North 487 560 26,200 1,000 Climbing FlightAware ADS-B
Sat 07:28:39 AM 51.3960 9.3800 12° North 490 564 26,700 957 Climbing FlightAware ADS-B
Sat 07:29:13 AM 51.4750 9.4020 10° North 493 567 27,300 1,000 Climbing FlightAware ADS-B
Sat 07:29:51 AM 51.5580 9.4020 360° North 492 566 27,900 935 Climbing FlightAware ADS-B
Sat 07:30:30 AM 51.6490 9.3860 354° North 495 570 28,500 892 Climbing FlightAware ADS-B
Sat 07:31:05 AM 51.7280 9.3720 354° North 499 574 29,000 857 Climbing FlightAware ADS-B
Sat 07:31:40 AM 51.8080 9.3500 350° North 501 577 29,500 789 Climbing FlightAware ADS-B
Sat 07:32:21 AM 51.8980 9.3120 345° North 502 578 30,000 1,105 Climbing FlightAware ADS-B
Sat 07:32:56 AM 51.9770 9.2760 344° North 497 572 30,900 1,371 Climbing FlightAware ADS-B
Sat 07:33:31 AM 52.0550 9.2410 345° North 494 568 31,600 1,200 Climbing FlightAware ADS-B
Sat 07:34:06 AM 52.1320 9.2070 345° North 490 564 32,300 1,114 Climbing FlightAware ADS-B
Sat 07:34:41 AM 52.2030 9.1760 345° North 488 562 32,900 943 Climbing FlightAware ADS-B
Sat 07:35:16 AM 52.2810 9.1430 345° North 487 560 33,400 857 Climbing FlightAware ADS-B
Sat 07:35:51 AM 52.3610 9.1100 346° North 484 557 33,900 514 Climbing FlightAware ADS-B
Sat 07:36:26 AM 52.4290 9.0730 342° North 481 554 34,000 86 Climbing FlightAware ADS-B
Sat 07:37:01 AM 52.5060 9.0240 339° North 480 552 34,000  Level FlightAware ADS-B
Sat 07:37:38 AM 52.5810 8.9730 338° Northwest 480 552 34,000  Level FlightAware ADS-B
Sat 07:38:14 AM 52.6540 8.9210 337° Northwest 481 554 34,000  Level FlightAware ADS-B
Sat 07:38:46 AM 52.7240 8.8730 337° Northwest 482 555 34,000  Level FlightAware ADS-B
Sat 07:39:18 AM 52.7850 8.8290 336° Northwest 482 555 34,000  Level FlightAware ADS-B
Sat 07:39:57 AM 52.8680 8.7710 337° Northwest 485 558 34,000  Level FlightAware ADS-B
Sat 07:40:32 AM 52.9400 8.7200 337° Northwest 486 559 34,000  Level FlightAware ADS-B
Sat 07:41:13 AM 53.0210 8.6630 337° Northwest 487 560 34,000  Level FlightAware ADS-B
Sat 07:41:44 AM 53.0860 8.6160 337° Northwest 487 560 34,000  Level FlightAware ADS-B
Sat 07:42:25 AM 53.1720 8.5550 337° Northwest 489 563 34,000  Level FlightAware ADS-B
Sat 07:42:57 AM 53.2360 8.5080 336° Northwest 490 564 34,000  Level FlightAware ADS-B
Sat 07:43:34 AM 53.3150 8.4520 337° Northwest 490 564 34,000  Level FlightAware ADS-B
Sat 07:44:11 AM 53.3900 8.3980 337° Northwest 490 564 34,000  Level FlightAware ADS-B
Sat 07:44:43 AM 53.4580 8.3480 336° Northwest 491 565 34,000  Level FlightAware ADS-B
Sat 07:45:19 AM 53.5330 8.2940 337° Northwest 493 567 34,000  Level FlightAware ADS-B
Sat 07:45:56 AM 53.6130 8.2350 336° Northwest 493 567 34,000  Level FlightAware ADS-B
Sat 07:46:28 AM 53.6780 8.1870 336° Northwest 494 568 34,000  Level FlightAware ADS-B
Sat 07:47:03 AM 53.7520 8.1320 336° Northwest 495 570 34,000  Level FlightAware ADS-B
Sat 07:47:38 AM 53.8260 8.0780 337° Northwest 495 570 34,000  Level FlightAware ADS-B
Sat 07:48:16 AM 53.9040 8.0200 336° Northwest 497 572 34,000  Level FlightAware ADS-B
Sat 07:48:47 AM 53.9670 7.9730 336° Northwest 497 572 34,000  Level FlightAware ADS-B
Sat 07:49:24 AM 54.0440 7.9160 337° Northwest 497 572 34,000  Level FlightAware ADS-B
Sat 07:49:58 AM 54.1210 7.8570 336° Northwest 497 572 34,000  Level FlightAware ADS-B
Sat 07:50:35 AM 54.1990 7.7980 336° Northwest 498 573 34,000  Level FlightAware ADS-B
Sat 07:51:04 AM 54.2530 7.7580 337° Northwest 499 574 34,000  Level FlightAware ADS-B
Sat 07:51:45 AM 54.3450 7.6880 336° Northwest 499 574 34,000  Level FlightAware ADS-B
Sat 07:52:20 AM 54.4170 7.6330 336° Northwest 500 575 34,000  Level FlightAware ADS-B
Sat 07:52:50 AM 54.4830 7.5820 336° Northwest 500 575 34,000  Level FlightAware ADS-B
Sat 07:53:29 AM 54.5500 7.5310 336° Northwest 501 577 34,000  Level FlightAware ADS-B
Sat 07:53:58 AM 54.6270 7.4720 336° Northwest 502 578 34,000  Level FlightAware ADS-B
Sat 07:54:37 AM 54.7090 7.4080 336° Northwest 503 579 34,000  Level FlightAware ADS-B
Sat 07:55:18 AM 54.7940 7.3420 336° Northwest 504 580 34,000  Level FlightAware ADS-B
Sat 07:55:57 AM 54.8780 7.2760 336° Northwest 505 581 34,000  Level FlightAware ADS-B
Sat 07:56:30 AM 54.9490 7.2200 336° Northwest 506 582 34,000  Level FlightAware ADS-B
Sat 07:57:07 AM 55.0240 7.1610 336° Northwest 507 583 34,000  Level FlightAware ADS-B
Sat 07:57:44 AM 55.1020 7.0990 336° Northwest 509 586 34,000  Level FlightAware ADS-B
Sat 07:58:20 AM 55.1830 7.0350 336° Northwest 510 587 34,000  Level FlightAware ADS-B
Sat 07:58:53 AM 55.2520 6.9790 335° Northwest 511 588 34,000  Level FlightAware ADS-B
Sat 07:59:32 AM 55.3310 6.9160 336° Northwest 511 588 34,000  Level FlightAware ADS-B
Sat 08:00:07 AM 55.4120 6.8510 336° Northwest 513 590 34,000  Level FlightAware ADS-B
Sat 08:00:42 AM 55.4880 6.7890 335° Northwest 512 589 34,000  Level FlightAware ADS-B
Sat 08:01:22 AM 55.5690 6.7230 335° Northwest 513 590 34,000  Level FlightAware ADS-B
Sat 08:01:57 AM 55.6490 6.6580 335° Northwest 513 590 34,000  Level FlightAware ADS-B
Sat 08:02:32 AM 55.7230 6.5970 335° Northwest 513 590 34,000  Level FlightAware ADS-B
Sat 08:03:07 AM 55.7990 6.5350 335° Northwest 514 592 34,000  Level FlightAware ADS-B
Sat 08:03:42 AM 55.8750 6.4720 335° Northwest 514 592 34,000  Level FlightAware ADS-B
Sat 08:04:22 AM 55.9600 6.4010 335° Northwest 513 590 34,000  Level FlightAware ADS-B
Sat 08:04:52 AM 56.0220 6.3490 335° Northwest 513 590 34,000  Level FlightAware ADS-B
Sat 08:05:28 AM 56.0980 6.2850 335° Northwest 514 592 34,000  Level FlightAware ADS-B
Sat 08:06:02 AM 56.1740 6.2210 335° Northwest 514 592 34,000  Level FlightAware ADS-B
Sat 08:06:37 AM 56.2500 6.1570 335° Northwest 515 593 34,000  Level FlightAware ADS-B
Sat 08:07:17 AM 56.3360 6.0840 335° Northwest 515 593 34,000  Level FlightAware ADS-B
Sat 08:07:47 AM 56.4010 6.0290 335° Northwest 516 594 34,000  Level FlightAware ADS-B
Sat 08:08:22 AM 56.4760 5.9620 334° Northwest 515 593 34,000  Level FlightAware ADS-B
Sat 08:09:07 AM 56.5690 5.8660 330° Northwest 514 592 34,000  Level FlightAware ADS-B
Sat 08:09:44 AM 56.6420 5.7840 328° Northwest 513 590 34,000  Level FlightAware ADS-B
Sat 08:10:16 AM 56.7080 5.7100 328° Northwest 513 590 34,000  Level FlightAware ADS-B
Sat 08:10:52 AM 56.7800 5.6280 328° Northwest 513 590 34,000  Level FlightAware ADS-B
Sat 08:11:28 AM 56.8520 5.5450 328° Northwest 513 590 34,000  Level FlightAware ADS-B
Sat 08:12:01 AM 56.9120 5.4760 328° Northwest 512 589 34,000  Level FlightAware ADS-B
Sat 08:12:38 AM 56.9930 5.3810 327° Northwest 513 590 34,000  Level FlightAware ADS-B
Sat 08:13:10 AM 57.0520 5.3120 328° Northwest 513 590 34,000  Level FlightAware ADS-B
Sat 08:13:44 AM 57.1230 5.2290 328° Northwest 514 592 34,000  Level FlightAware ADS-B
Sat 08:14:22 AM 57.1960 5.1420 327° Northwest 514 592 34,000  Level FlightAware ADS-B
Sat 08:14:58 AM 57.2700 5.0550 328° Northwest 515 593 34,000  Level FlightAware ADS-B
Sat 08:15:28 AM 57.3310 4.9830 328° Northwest 515 593 34,000  Level FlightAware ADS-B
Sat 08:16:07 AM 57.4090 4.8900 327° Northwest 515 593 34,000  Level FlightAware ADS-B
Sat 08:16:41 AM 57.4790 4.8070 327° Northwest 516 594 34,000  Level FlightAware ADS-B
Sat 08:17:18 AM 57.5510 4.7190 327° Northwest 517 595 34,000  Level FlightAware ADS-B
Sat 08:17:50 AM 57.6150 4.6420 327° Northwest 515 593 34,000  Level FlightAware ADS-B
Sat 08:18:26 AM 57.6860 4.5560 327° Northwest 512 589 34,000  Level FlightAware ADS-B
Sat 08:19:03 AM 57.7590 4.4670 327° Northwest 507 583 34,000  Level FlightAware ADS-B
Sat 08:19:37 AM 57.8270 4.3830 327° Northwest 506 582 34,000  Level FlightAware ADS-B
Sat 08:20:10 AM 57.8900 4.3060 327° Northwest 506 582 34,000  Level FlightAware ADS-B
Sat 08:20:49 AM 57.9670 4.2100 327° Northwest 505 581 34,000  Level FlightAware ADS-B
Sat 08:21:20 AM 58.0270 4.1360 327° Northwest 504 580 34,000  Level FlightAware ADS-B
Sat 08:21:56 AM 58.0970 4.0480 326° Northwest 503 579 34,000  Level FlightAware ADS-B
Sat 08:22:33 AM 58.1690 3.9570 326° Northwest 503 579 34,000  Level FlightAware ADS-B
Sat 08:23:06 AM 58.2310 3.8780 326° Northwest 502 578 34,000  Level FlightAware ADS-B
Sat 08:23:42 AM 58.3020 3.7890 327° Northwest 500 575 34,000 -90 Level FlightAware ADS-B
Sat 08:24:13 AM 58.3620 3.7141 327° Northwest 484 557 33,900  Descending FlightAware UK
Sat 08:24:19 AM 58.3710 3.7010 327° Northwest 498 573 34,000  Climbing FlightAware ADS-B
Sat 08:24:49 AM 58.4308 3.6261 327° Northwest 480 552 33,900  Descending FlightAware UK
Sat 08:24:50 AM 58.4280 3.6280 327° Northwest 498 573 34,000 162 Climbing FlightAware ADS-B
Sat 08:25:26 AM 58.4990 3.5370 326° Northwest 499 574 34,000 -85 Level FlightAware ADS-B
Sat 08:26:01 AM 58.5678 3.4491 326° Northwest 480 552 33,900  Descending FlightAware UK
Sat 08:26:02 AM 58.5690 3.4470 326° Northwest 498 573 34,000 162 Climbing FlightAware ADS-B
Sat 08:26:38 AM 58.6360 3.3590 326° Northwest 500 575 34,000  Level FlightAware ADS-B
Sat 08:27:10 AM 58.6980 3.2780 326° Northwest 499 574 34,000  Level FlightAware ADS-B
Sat 08:27:44 AM 58.7620 3.1950 326° Northwest 498 573 34,000  Level FlightAware ADS-B
Sat 08:28:22 AM 58.8350 3.0990 326° Northwest 497 572 34,000  Level FlightAware ADS-B
Sat 08:28:58 AM 58.9000 3.0130 326° Northwest 497 572 34,000  Level FlightAware ADS-B
Sat 08:29:30 AM 58.9630 2.9290 326° Northwest 496 571 34,000  Level FlightAware ADS-B
Sat 08:30:06 AM 59.0300 2.8400 326° Northwest 495 570 34,000  Level FlightAware ADS-B
Sat 08:30:40 AM 59.0940 2.7540 325° Northwest 494 568 34,000 -76 Level FlightAware ADS-B
Sat 08:31:25 AM 59.1793 2.6405 325° Northwest 484 557 33,900  Descending FlightAware UK
Sat 08:31:29 AM 59.1800 2.6380 325° Northwest 492 566 34,000 150 Climbing FlightAware ADS-B
Sat 08:32:05 AM 59.2450 2.5490 325° Northwest 492 566 34,000  Level FlightAware ADS-B
Sat 08:32:45 AM 59.3210 2.4460 325° Northwest 490 564 34,000  Level FlightAware ADS-B
Sat 08:33:20 AM 59.3910 2.3510 325° Northwest 491 565 34,000  Level FlightAware ADS-B
Sat 08:33:55 AM 59.4540 2.2640 325° Northwest 491 565 34,000  Level FlightAware ADS-B
Sat 08:34:35 AM 59.5300 2.1590 325° Northwest 490 564 34,000  Level FlightAware ADS-B
Sat 08:35:05 AM 59.5810 2.0880 325° Northwest 490 564 34,000  Level FlightAware ADS-B
Sat 08:35:36 AM 59.6454 2.0005 325° Northwest 480 552 34,000  Level FlightAware UK
Sat 08:35:41 AM 59.6500 1.9910 325° Northwest 489 563 34,000  Level FlightAware ADS-B
Sat 08:36:20 AM 59.7210 1.8920 325° Northwest 489 563 34,000 -140 Level FlightAware ADS-B
Sat 08:36:24 AM 59.7337 1.8765 325° Northwest 478 550 33,900  Descending FlightAware UK
Sat 08:37:00 AM 59.7950 1.7880 325° Northwest 490 564 34,000 85 Climbing FlightAware ADS-B
Sat 08:37:35 AM 59.8620 1.6920 324° Northwest 490 564 34,000  Level FlightAware ADS-B
Sat 08:38:10 AM 59.9270 1.6000 325° Northwest 491 565 34,000  Level FlightAware ADS-B
Sat 08:38:50 AM 60.0000 1.4950 324° Northwest 492 566 34,000  Level FlightAware ADS-B
Sat 08:39:25 AM 60.0610 1.4070 324° Northwest 493 567 34,000  Level FlightAware ADS-B
Sat 08:40:06 AM 60.1412 1.2919 324° Northwest 480 552 34,000  Level FlightAware UK
Sat 08:40:06 AM 60.1340 1.3020 324° Northwest 493 567 34,000  Level FlightAware ADS-B
Sat 08:40:41 AM 60.2000 1.2050 324° Northwest 494 568 34,000  Level FlightAware ADS-B
Sat 08:41:16 AM 60.2700 1.1030 324° Northwest 493 567 34,000  Level FlightAware ADS-B
Sat 08:41:51 AM 60.3340 1.0080 324° Northwest 493 567 34,000  Level FlightAware ADS-B
Sat 08:42:26 AM 60.3980 0.9130 324° Northwest 495 570 34,000  Level FlightAware ADS-B
Sat 08:43:01 AM 60.4610 0.8200 324° Northwest 495 570 34,000  Level FlightAware ADS-B
Sat 08:43:36 AM 60.5180 0.7360 324° Northwest 495 570 34,000  Level FlightAware ADS-B
Sat 08:44:10 AM 60.5880 0.6300 323° Northwest 489 563 34,000  Level FlightAware ADS-B
Sat 08:44:45 AM 60.6530 0.5330 324° Northwest 496 571 34,000  Level FlightAware ADS-B
Sat 08:45:25 AM 60.7220 0.4280 323° Northwest 497 572 34,000  Level FlightAware ADS-B
Sat 08:46:02 AM 60.7800 0.3390 323° Northwest 497 572 34,000  Level FlightAware ADS-B
Sat 08:46:40 AM 60.8630 0.2120 323° Northwest 487 560 34,000  Level FlightAware ADS-B
Sat 08:47:10 AM 60.9140 0.1340 323° Northwest 487 560 34,000  Level FlightAware ADS-B
Sat 08:47:51 AM 60.9750 0.0360 322° Northwest 487 560 34,000  Level FlightAware ADS-B
Sat 08:48:27 AM 61.0290 -0.0520 322° Northwest 487 560 34,000  Level FlightAware ADS-B
Sat 08:49:02 AM 61.1100 -0.2210 315° West 490 564 34,000  Level FlightAware ADS-B
Sat 08:49:36 AM 61.1620 -0.3280 315° West 489 563 34,000  Level FlightAware ADS-B
Sat 08:50:10 AM 61.2190 -0.4450 315° West 487 560 34,000  Level FlightAware ADS-B
Sat 08:50:45 AM 61.2730 -0.5560 315° West 487 560 34,000  Level FlightAware ADS-B
Sat 08:51:22 AM 61.3300 -0.6740 315° West 479 551 34,000  Level FlightAware ADS-B
Sat 08:51:57 AM 61.3880 -0.7920 316° Northwest 482 555 34,000  Level FlightAware ADS-B
Sat 08:52:30 AM 61.4400 -0.9020 315° West 478 550 34,000  Level FlightAware ADS-B
Sat 08:53:06 AM 61.4960 -1.0200 315° West 475 547 34,000  Level FlightAware ADS-B
Sat 08:53:42 AM 61.5520 -1.1370 315° West 475 547 34,000  Level FlightAware ADS-B
Sat 08:54:16 AM 61.6050 -1.2500 315° West 475 547 34,000  Level FlightAware ADS-B
Sat 08:54:49 AM 61.6540 -1.3560 314° West 475 547 34,000  Level FlightAware ADS-B
Sat 08:55:26 AM 61.7110 -1.4780 315° West 475 547 34,000  Level FlightAware ADS-B
Sat 08:56:01 AM 61.7640 -1.5920 315° West 473 544 34,000  Level FlightAware ADS-B
Sat 08:56:38 AM 61.8190 -1.7110 314° West 472 543 34,000  Level FlightAware ADS-B
Sat 08:57:18 AM 61.8780 -1.8380 315° West 425 489 34,000  Level FlightAware ADS-B
Sat 08:57:54 AM 61.9360 -1.9660 314° West 467 537 34,000  Level FlightAware ADS-B
Sat 08:58:27 AM 61.9850 -2.0730 314° West 466 536 34,000  Level FlightAware ADS-B
Sat 08:59:02 AM 62.0370 -2.1890 314° West 465 535 34,000  Level FlightAware ADS-B
Sat 08:59:39 AM 62.0910 -2.3100 314° West 465 535 34,000  Level FlightAware ADS-B
Sat 09:00:14 AM 62.1420 -2.4230 314° West 464 534 34,000  Level FlightAware ADS-B
Sat 09:00:47 AM 62.1920 -2.5360 314° West 463 533 34,000  Level FlightAware ADS-B
Sat 09:01:20 AM 62.2410 -2.6460 314° West 461 531 34,000  Level FlightAware ADS-B
Sat 09:01:58 AM 62.2970 -2.7740 313° West 461 531 34,000  Level FlightAware ADS-B
Sat 09:02:34 AM 62.3490 -2.8930 313° West 460 529 34,000  Level FlightAware ADS-B
Sat 09:03:07 AM 62.3960 -3.0010 313° West 459 528 34,000  Level FlightAware ADS-B
Sat 09:03:42 AM 62.4470 -3.1180 313° West 459 528 34,000  Level FlightAware ADS-B
Sat 09:04:14 AM 62.4930 -3.2240 313° West 458 527 34,000  Level FlightAware ADS-B
Sat 09:04:52 AM 62.5480 -3.3540 313° West 457 526 34,000  Level FlightAware ADS-B
Sat 09:05:28 AM 62.5990 -3.4730 313° West 456 525 34,000  Level FlightAware ADS-B
Sat 09:06:02 AM 62.6480 -3.5890 313° West 456 525 34,000  Level FlightAware ADS-B
Sat 09:06:38 AM 62.6980 -3.7090 312° West 455 524 34,000  Level FlightAware ADS-B
Sat 09:07:14 AM 62.7490 -3.8310 312° West 453 521 34,000  Level FlightAware ADS-B
Sat 09:07:46 AM 62.7940 -3.9380 313° West 452 520 34,000  Level FlightAware ADS-B
Sat 09:08:22 AM 62.8450 -4.0620 312° West 450 518 34,000  Level FlightAware ADS-B
Sat 09:09:00 AM 62.8980 -4.1890 313° West 449 517 34,000  Level FlightAware ADS-B
Sat 09:09:32 AM 62.9420 -4.2980 312° West 448 516 34,000  Level FlightAware ADS-B
Sat 09:10:08 AM 62.9920 -4.4190 312° West 448 516 34,000  Level FlightAware ADS-B
Sat 09:10:44 AM 63.0420 -4.5410 312° West 449 517 34,000  Level FlightAware ADS-B
Sat 09:11:04 AM 63.0690 -4.6080 312° West 449 517 34,000  Level FlightAware ADS-B
Sat 09:11:53 AM 63.1360 -4.7750 312° West 450 518 34,000  Level FlightAware ADS-B
Sat 09:12:30 AM 63.1850 -4.9000 311° West 449 517 34,000  Level FlightAware ADS-B
Sat 09:13:06 AM 63.2370 -5.0300 312° West 449 517 34,000  Level FlightAware ADS-B
Sat 09:13:43 AM 63.2860 -5.1550 311° West 448 516 34,000  Level FlightAware ADS-B
Sat 09:14:14 AM 63.3290 -5.2640 311° West 448 516 34,000  Level FlightAware ADS-B
Sat 09:14:50 AM 63.3780 -5.3900 311° West 449 517 34,000  Level FlightAware ADS-B
Sat 09:15:22 AM 63.4220 -5.5010 312° West 450 518 34,000  Level FlightAware ADS-B
Sat 09:16:00 AM 63.4730 -5.6350 310° West 453 521 34,000  Level FlightAware ADS-B
Sat 09:16:38 AM 63.5250 -5.7690 311° West 452 520 34,000 257 Level FlightAware ADS-B
Sat 09:17:10 AM 63.5670 -5.8800 310° West 456 525 34,300 618 Climbing FlightAware ADS-B
Sat 09:17:46 AM 63.6180 -6.0120 311° West 459 528 34,700 583 Climbing FlightAware ADS-B
Sat 09:18:22 AM 63.6670 -6.1440 310° West 459 528 35,000 250 Climbing FlightAware ADS-B
Sat 09:18:58 AM 63.7130 -6.2660 310° West 458 527 35,000  Level FlightAware ADS-B
Sat 09:19:30 AM 63.7590 -6.3900 310° West 456 525 35,000  Level FlightAware ADS-B
Sat 09:20:06 AM 63.8080 -6.5200 311° West 456 525 35,000  Level FlightAware ADS-B
Sat 09:20:42 AM 63.8560 -6.6520 310° West 455 524 35,000  Level FlightAware ADS-B
Sat 09:21:18 AM 63.9040 -6.7820 310° West 454 522 35,000  Level FlightAware ADS-B
Sat 09:21:50 AM 63.9480 -6.9020 310° West 454 522 35,000  Level FlightAware ADS-B
Sat 09:22:25 AM 63.9940 -7.0280 310° West 453 521 35,000  Level FlightAware ADS-B
Sat 09:22:59 AM 64.0370 -7.1500 309° West 451 519 35,000  Level FlightAware ADS-B
Sat 09:23:29 AM 64.0770 -7.2600 310° West 451 519 35,000  Level FlightAware ADS-B
Sat 09:24:09 AM 64.1220 -7.3870 309° West 451 519 35,000  Level FlightAware ADS-B
Sat 09:24:46 AM 64.1630 -7.5040 309° West 451 519 35,000  Level FlightAware ADS-B
Sat 09:25:22 AM 64.2030 -7.6180 309° West 451 519 35,000  Level FlightAware ADS-B
Sat 09:25:58 AM 64.2430 -7.7320 309° West 451 519 35,000  Level FlightAware ADS-B
Sat 09:26:34 AM 64.2830 -7.8460 309° West 451 519 35,000  Level FlightAware ADS-B
Sat 09:27:12 AM 64.3260 -7.9670 309° West 451 519 35,000  Level FlightAware ADS-B
Sat 09:27:48 AM 64.3660 -8.0820 309° West 451 519 35,000  Level FlightAware ADS-B
Sat 09:28:25 AM 64.4070 -8.2000 309° West 451 519 35,000  Level FlightAware ADS-B
Sat 09:28:59 AM 64.4450 -8.3080 309° West 451 519 35,000  Level FlightAware ADS-B
Sat 09:29:35 AM 64.4850 -8.4230 309° West 451 519 35,000  Level FlightAware ADS-B
Sat 09:30:11 AM 64.5260 -8.5390 309° West 451 519 35,000  Level FlightAware ADS-B
Sat 09:30:48 AM 64.5670 -8.6570 309° West 451 519 35,000  Level FlightAware ADS-B
Sat 09:31:24 AM 64.6070 -8.7730 309° West 451 519 35,000  Level FlightAware ADS-B
Sat 09:32:02 AM 64.6490 -8.8950 309° West 451 519 35,000  Level FlightAware ADS-B
Sat 09:32:38 AM 64.6900 -9.0110 310° West 451 519 35,000  Level FlightAware ADS-B
Sat 09:33:14 AM 64.7300 -9.1270 309° West 451 519 35,000  Level FlightAware ADS-B
Sat 09:35:00 AM 64.7726 -9.6062 282° West  Level Estimated
Sat 09:36:00 AM 64.7960 -9.8781 282° West  Level Estimated
Sat 09:37:00 AM 64.8189 -10.1505 281° West  Level Estimated
Sat 09:38:00 AM 64.8413 -10.4234 281° West  Level Estimated
Sat 09:39:00 AM 64.8632 -10.6967 281° West  Level Estimated
Sat 09:40:00 AM 64.8846 -10.9704 281° West  Level Estimated
Sat 09:41:00 AM 64.9055 -11.2446 280° West  Level Estimated
Sat 09:42:00 AM 64.9259 -11.5192 280° West  Level Estimated
Sat 09:43:00 AM 64.9458 -11.7942 280° West  Level Estimated
Sat 09:44:00 AM 64.9652 -12.0696 280° West  Level Estimated
Sat 09:45:00 AM 64.9841 -12.3454 279° West  Level Estimated
Sat 09:46:00 AM 65.0025 -12.6216 279° West  Level Estimated
Sat 09:47:00 AM 65.0203 -12.8981 279° West  Level Estimated
Sat 09:48:00 AM 65.0377 -13.1751 279° West  Level Estimated
Sat 09:49:00 AM 65.0545 -13.4523 278° West  Level Estimated
Sat 09:49:46 AM 65.8700 -13.7780 278° West 458 527 35,000  Level FlightAware ADS-B
Sat 09:50:18 AM 65.9020 -13.9270 298° West 457 526 35,000  Level FlightAware ADS-B
Sat 09:50:48 AM 65.9280 -14.0560 296° West 455 524 35,000  Level FlightAware ADS-B
Sat 09:51:28 AM 65.9600 -14.2140 296° West 455 524 35,000  Level FlightAware ADS-B
Sat 09:52:05 AM 65.9890 -14.3600 296° West 455 524 35,000  Level FlightAware ADS-B
Sat 09:52:41 AM 66.0170 -14.5020 296° West 455 524 35,000  Level FlightAware ADS-B
Sat 09:53:18 AM 66.0460 -14.6490 296° West 455 524 35,000  Level FlightAware ADS-B
Sat 09:53:54 AM 66.0740 -14.7910 296° West 455 524 35,000  Level FlightAware ADS-B
Sat 09:54:33 AM 66.1430 -15.1120 298° West 461 531 35,000  Level FlightAware ADS-B
Sat 09:55:03 AM 66.1710 -15.2540 296° West 461 531 35,000  Level FlightAware ADS-B
Sat 09:55:41 AM 66.2060 -15.4360 296° West 459 528 35,000  Level FlightAware ADS-B
Sat 09:56:17 AM 66.2380 -15.6030 295° West 458 527 35,000  Level FlightAware ADS-B
Sat 09:56:55 AM 66.2670 -15.7570 295° West 458 527 35,000  Level FlightAware ADS-B
Sat 09:57:25 AM 66.3000 -15.9250 296° West 456 525 35,000  Level FlightAware ADS-B
Sat 09:58:01 AM 66.3320 -16.0970 295° West 457 526 35,000  Level FlightAware ADS-B
Sat 09:58:33 AM 66.3600 -16.2460 295° West 457 526 35,000  Level FlightAware ADS-B
Sat 09:59:13 AM 66.3900 -16.4100 295° West 457 526 35,000  Level FlightAware ADS-B
Sat 09:59:47 AM 66.4260 -16.6010 295° West 463 533 35,000  Level FlightAware ADS-B
Sat 10:00:19 AM 66.4550 -16.7570 295° West 464 534 35,000  Level FlightAware ADS-B
Sat 10:01:02 AM 66.4890 -16.9470 294° West 464 534 35,000  Level FlightAware ADS-B
Sat 10:01:39 AM 66.5160 -17.1010 294° West 464 534 35,000  Level FlightAware ADS-B
Sat 10:02:15 AM 66.5430 -17.2520 294° West 464 534 35,000  Level FlightAware ADS-B
Sat 10:02:51 AM 66.5700 -17.4030 294° West 464 534 35,000  Level FlightAware ADS-B
Sat 10:03:27 AM 66.5960 -17.5540 293° West 464 534 35,000  Level FlightAware ADS-B
Sat 10:04:04 AM 66.6240 -17.7090 295° West 464 534 35,000  Level FlightAware ADS-B
Sat 10:04:40 AM 66.6510 -17.8610 294° West 464 534 35,000  Level FlightAware ADS-B
Sat 10:05:16 AM 66.6770 -18.0120 294° West 464 534 35,000  Level FlightAware ADS-B
Sat 10:05:53 AM 66.7050 -18.1680 294° West 464 534 35,000  Level FlightAware ADS-B
Sat 10:06:27 AM 66.7300 -18.3120 294° West 464 534 35,000  Level FlightAware ADS-B
Sat 10:07:04 AM 66.7570 -18.4680 294° West 464 534 35,000  Level FlightAware ADS-B
Sat 10:07:41 AM 66.7850 -18.6240 295° West 464 534 35,000  Level FlightAware ADS-B
Sat 10:08:18 AM 66.8120 -18.7810 294° West 464 534 35,000  Level FlightAware ADS-B
Sat 10:08:54 AM 66.8390 -18.9330 294° West 464 534 35,000  Level FlightAware ADS-B
Sat 10:09:30 AM 66.8660 -19.0860 294° West 464 534 35,000  Level FlightAware ADS-B
Sat 10:10:06 AM 66.8920 -19.2390 293° West 464 534 35,000  Level FlightAware ADS-B
Sat 10:12:00 AM 66.8954 -19.8111 271° West  Level Estimated
Sat 10:13:00 AM 66.8964 -20.1123 271° West  Level Estimated
Sat 10:14:00 AM 66.8968 -20.4135 270° West  Level Estimated
Sat 10:15:00 AM 66.8967 -20.7147 270° West  Level Estimated
Sat 10:16:00 AM 66.8959 -21.0159 270° West  Level Estimated
Sat 10:17:00 AM 66.8946 -21.3171 270° West  Level Estimated
Sat 10:18:00 AM 66.8928 -21.6182 269° West  Level Estimated
Sat 10:19:00 AM 66.8903 -21.9193 269° West  Level Estimated
Sat 10:20:00 AM 66.8873 -22.2203 269° West  Level Estimated
Sat 10:21:00 AM 66.8837 -22.5212 268° West  Level Estimated
Sat 10:22:00 AM 66.8796 -22.8220 268° West  Level Estimated
Sat 10:23:00 AM 66.8748 -23.1227 268° West  Level Estimated
Sat 10:24:00 AM 66.8695 -23.4233 268° West  Level Estimated
Sat 10:25:00 AM 66.8637 -23.7238 267° West  Level Estimated
Sat 10:26:00 AM 66.8572 -24.0241 267° West  Level Estimated
Sat 10:27:00 AM 66.8502 -24.3242 267° West  Level Estimated
Sat 10:28:00 AM 66.8427 -24.6242 266° West  Level Estimated
Sat 10:29:00 AM 66.8345 -24.9240 266° West  Level Estimated
Sat 10:30:00 AM 66.8258 -25.2235 266° West  Level Estimated
Sat 10:31:00 AM 66.8165 -25.5229 266° West  Level Estimated
Sat 10:32:00 AM 66.8067 -25.8220 265° West  Level Estimated
Sat 10:33:00 AM 66.7963 -26.1209 265° West  Level Estimated
Sat 10:34:00 AM 66.7853 -26.4195 265° West  Level Estimated
Sat 10:35:00 AM 66.7738 -26.7178 265° West  Level Estimated
Sat 10:36:00 AM 66.7617 -27.0159 264° West  Level Estimated
Sat 10:37:00 AM 66.7490 -27.3136 264° West  Level Estimated
Sat 10:38:00 AM 66.7358 -27.6110 264° West  Level Estimated
Sat 10:39:00 AM 66.7221 -27.9081 263° West  Level Estimated
Sat 10:40:00 AM 66.7077 -28.2049 263° West  Level Estimated
Sat 10:41:00 AM 66.6928 -28.5013 263° West  Level Estimated
Sat 10:42:00 AM 66.6774 -28.7974 263° West  Level Estimated
Sat 10:43:00 AM 66.6614 -29.0931 262° West  Level Estimated
Sat 10:44:00 AM 66.6448 -29.3884 262° West  Level Estimated
Sat 10:45:00 AM 66.6277 -29.6833 262° West  Level Estimated
Sat 10:46:00 AM 66.6101 -29.9777 262° West  Level Estimated
Sat 10:47:00 AM 66.5919 -30.2718 261° West  Level Estimated
Sat 10:48:00 AM 66.5731 -30.5654 261° West  Level Estimated
Sat 10:49:00 AM 66.5538 -30.8585 261° West  Level Estimated
Sat 10:50:00 AM 66.5339 -31.1512 260° West  Level Estimated
Sat 10:51:00 AM 66.5135 -31.4435 260° West  Level Estimated
Sat 10:52:00 AM 66.4926 -31.7352 260° West  Level Estimated
Sat 10:53:00 AM 66.4711 -32.0264 260° West  Level Estimated
Sat 10:54:00 AM 66.4491 -32.3172 259° West  Level Estimated
Sat 10:55:00 AM 66.4265 -32.6074 259° West  Level Estimated
Sat 10:56:00 AM 66.4034 -32.8971 259° West  Level Estimated
Sat 10:57:00 AM 66.3797 -33.1862 259° West  Level Estimated
Sat 10:58:00 AM 66.3556 -33.4748 258° West  Level Estimated
Sat 10:59:00 AM 66.3308 -33.7629 258° West  Level Estimated
Sat 11:00:00 AM 66.3056 -34.0503 258° West  Level Estimated
Sat 11:01:00 AM 66.2798 -34.3372 258° West  Level Estimated
Sat 11:02:00 AM 66.2535 -34.6235 257° West  Level Estimated
Sat 11:03:00 AM 66.2267 -34.9092 257° West  Level Estimated
Sat 11:04:00 AM 66.1994 -35.1942 257° West  Level Estimated
Sat 11:05:00 AM 66.1715 -35.4787 256° West  Level Estimated
Sat 11:06:00 AM 66.1431 -35.7625 256° West  Level Estimated
Sat 11:07:00 AM 66.1142 -36.0457 256° West  Level Estimated
Sat 11:08:00 AM 66.0848 -36.3282 256° West  Level Estimated
Sat 11:09:00 AM 66.0548 -36.6101 255° West  Level Estimated
Sat 11:10:00 AM 66.0244 -36.8913 255° West  Level Estimated
Sat 11:11:00 AM 65.9934 -37.1718 255° West  Level Estimated
Sat 11:12:00 AM 65.9619 -37.4522 255° West  Level Estimated
Sat 11:13:00 AM 65.9298 -37.7318 254° West  Level Estimated
Sat 11:14:00 AM 65.8972 -38.0108 254° West  Level Estimated
Sat 11:15:00 AM 65.8642 -38.2890 254° West  Level Estimated
Sat 11:16:00 AM 65.8306 -38.5665 254° West  Level Estimated
Sat 11:17:00 AM 65.7966 -38.8433 253° West  Level Estimated
Sat 11:18:00 AM 65.7620 -39.1194 253° West  Level Estimated
Sat 11:19:00 AM 65.7270 -39.3947 253° West  Level Estimated
Sat 11:20:00 AM 65.6914 -39.6692 253° West  Level Estimated
Sat 11:21:00 AM 65.6554 -39.9430 252° West  Level Estimated
Sat 11:22:00 AM 65.6188 -40.2161 252° West  Level Estimated
Sat 11:23:00 AM 65.5818 -40.4883 252° West  Level Estimated
Sat 11:24:00 AM 65.5443 -40.7598 252° West  Level Estimated
Sat 11:25:00 AM 65.5063 -41.0305 251° West  Level Estimated
Sat 11:26:00 AM 65.4678 -41.3004 251° West  Level Estimated
Sat 11:27:00 AM 65.4289 -41.5695 251° West  Level Estimated
Sat 11:28:00 AM 65.3895 -41.8378 251° West  Level Estimated
Sat 11:29:00 AM 65.3496 -42.1053 250° West  Level Estimated
Sat 11:30:00 AM 65.3092 -42.3720 250° West  Level Estimated
Sat 11:31:00 AM 65.2676 -42.6425 250° West  Level Estimated
Sat 11:32:00 AM 65.2256 -42.9122 250° West  Level Estimated
Sat 11:33:00 AM 65.1831 -43.1810 249° West  Level Estimated
Sat 11:34:00 AM 65.1400 -43.4489 249° West  Level Estimated
Sat 11:35:00 AM 65.0965 -43.7160 249° West  Level Estimated
Sat 11:36:00 AM 65.0526 -43.9822 249° West  Level Estimated
Sat 11:37:00 AM 65.0082 -44.2475 248° West  Level Estimated
Sat 11:38:00 AM 64.9633 -44.5119 248° West  Level Estimated
Sat 11:39:00 AM 64.9179 -44.7755 248° West  Level Estimated
Sat 11:40:00 AM 64.8721 -45.0381 248° West  Level Estimated
Sat 11:41:00 AM 64.8258 -45.2998 248° West  Level Estimated
Sat 11:42:00 AM 64.7790 -45.5607 247° West  Level Estimated
Sat 11:43:00 AM 64.7318 -45.8206 247° West  Level Estimated
Sat 11:44:00 AM 64.6842 -46.0796 247° West  Level Estimated
Sat 11:45:00 AM 64.6360 -46.3377 247° West  Level Estimated
Sat 11:46:00 AM 64.5875 -46.5949 246° West  Level Estimated
Sat 11:47:00 AM 64.5385 -46.8512 246° West  Level Estimated
Sat 11:48:00 AM 64.4890 -47.1065 246° West  Level Estimated
Sat 11:49:00 AM 64.4391 -47.3610 246° West  Level Estimated
Sat 11:50:00 AM 64.3888 -47.6144 245° Southwest  Level Estimated
Sat 11:51:00 AM 64.3381 -47.8670 245° Southwest  Level Estimated
Sat 11:52:00 AM 64.2868 -48.1186 245° Southwest  Level Estimated
Sat 11:53:00 AM 64.2352 -48.3693 245° Southwest  Level Estimated
Sat 11:53:00 AM 65.1000 -52.6500 244° Southwest 470 541 35,000  Level Gander Center
Sat 11:54:00 AM 64.1832 -48.6191 245° Southwest  Level Estimated
Sat 11:54:00 AM 65.0167 -52.9167 234° Southwest 480 552 35,000  Level Gander Center
Sat 11:55:00 AM 64.1307 -48.8679 244° Southwest  Level Estimated
Sat 11:55:00 AM 64.9333 -53.1333 228° Southwest 480 552 35,000  Level Gander Center
Sat 11:56:00 AM 64.0778 -49.1158 244° Southwest  Level Estimated
Sat 11:56:00 AM 64.8500 -53.3500 228° Southwest 470 541 35,000  Level Gander Center
Sat 11:57:00 AM 64.0245 -49.3627 244° Southwest  Level Estimated
Sat 11:57:00 AM 64.7667 -53.6000 232° Southwest 470 541 35,000  Level Gander Center
Sat 11:58:00 AM 63.9707 -49.6087 244° Southwest  Level Estimated
Sat 11:58:00 AM 64.6833 -53.8167 228° Southwest 470 541 35,000  Level Gander Center
Sat 11:59:00 AM 64.6000 -54.0333 228° Southwest 460 529 35,000  Level Gander Center
Sat 12:00:00 PM 64.5167 -54.2500 228° Southwest 470 541 35,000  Level Gander Center
Sat 12:01:00 PM 64.4333 -54.5000 232° Southwest 470 541 35,000  Level Gander Center
Sat 12:02:00 PM 64.3333 -54.7167 223° Southwest 460 529 35,000  Level Gander Center
Sat 12:03:00 PM 64.2667 -54.9167 233° Southwest 460 529 35,000  Level Gander Center
Sat 12:04:00 PM 64.1667 -55.1333 223° Southwest 460 529 35,000  Level Gander Center
Sat 12:05:00 PM 64.0833 -55.3833 233° Southwest 450 518 35,000  Level Gander Center
Sat 12:06:00 PM 64.0000 -55.5500 221° Southwest 440 506 35,000  Level Gander Center
Sat 12:07:00 PM 63.9333 -55.7500 233° Southwest 440 506 35,000  Level Gander Center
Sat 12:08:00 PM 63.8333 -55.9500 221° Southwest 440 506 35,000  Level Gander Center
Sat 12:09:00 PM 63.7667 -56.1500 233° Southwest 440 506 35,000  Level Gander Center
Sat 12:10:00 PM 63.6667 -56.3500 222° Southwest 450 518 35,000 250 Level Gander Center
Sat 12:11:00 PM 63.5833 -56.5500 227° Southwest 450 518 35,500 900 Climbing Gander Center
Sat 12:12:00 PM 63.5000 -56.7500 227° Southwest 450 518 36,800 800 Climbing Gander Center
Sat 12:13:00 PM 63.4167 -56.9500 227° Southwest 440 506 37,100 300 Climbing Gander Center
Sat 12:14:00 PM 63.3333 -57.1500 227° Southwest 450 518 37,400 400 Climbing Gander Center
Sat 12:15:00 PM 63.2333 -57.3500 222° Southwest 450 518 37,900 300 Climbing Gander Center
Sat 12:16:00 PM 63.1500 -57.5500 227° Southwest 460 529 38,000 50 Climbing Gander Center
Sat 12:17:00 PM 63.0667 -57.7333 225° Southwest 460 529 38,000  Level Gander Center
Sat 12:18:00 PM 62.9667 -57.9333 222° Southwest 460 529 38,000  Level Gander Center
Sat 12:19:00 PM 62.8833 -58.1167 225° Southwest 460 529 38,000  Level Gander Center
Sat 12:20:00 PM 62.8000 -58.3167 228° Southwest 460 529 38,000  Level Gander Center
Sat 12:21:00 PM 62.7000 -58.5000 220° Southwest 450 518 38,000  Level Gander Center
Sat 12:22:00 PM 62.6167 -58.6833 225° Southwest 450 518 38,000  Level Gander Center
Sat 12:23:00 PM 62.5167 -58.8833 223° Southwest 440 506 38,000  Level Gander Center
Sat 12:24:00 PM 62.4333 -59.0667 226° Southwest 440 506 38,000  Level Gander Center
Sat 12:25:00 PM 62.3500 -59.2500 226° Southwest 440 506 38,000  Level Gander Center
Sat 12:26:00 PM 62.2667 -59.4333 226° Southwest 440 506 38,000  Level Gander Center
Sat 12:27:00 PM 62.1667 -59.6167 221° Southwest 440 506 38,000  Level Gander Center
Sat 12:28:00 PM 62.0833 -59.8000 226° Southwest 440 506 38,000  Level Gander Center
Sat 12:29:00 PM 61.9833 -59.9333 212° Southwest 430 495 38,000  Level Gander Center
Sat 12:30:00 PM 61.9000 -60.1167 226° Southwest 430 495 38,000  Level Gander Center
Sat 12:31:00 PM 61.8000 -60.3000 221° Southwest 430 495 38,000  Level Gander Center
Sat 12:32:00 PM 61.7333 -60.4833 233° Southwest 430 495 38,000  Level Gander Center
Sat 12:33:00 PM 61.6500 -60.6167 217° Southwest 430 495 38,000  Level Gander Center
Sat 12:34:00 PM 61.5500 -60.8000 221° Southwest 430 495 38,000  Level Gander Center
Sat 12:35:00 PM 61.4667 -60.9667 224° Southwest 430 495 38,000  Level Gander Center
Sat 12:36:00 PM 61.3667 -61.1500 221° Southwest 430 495 38,000  Level Gander Center
Sat 12:37:00 PM 61.2833 -61.2833 218° Southwest 440 506 38,000  Level Gander Center
Sat 12:38:00 PM 61.1833 -61.4833 224° Southwest 430 495 38,000  Level Gander Center
Sat 12:39:00 PM 61.1000 -61.6333 221° Southwest 430 495 38,000  Level Gander Center
Sat 12:40:00 PM 61.0167 -61.8000 224° Southwest 430 495 38,000  Level Gander Center
Sat 12:41:00 PM 60.9333 -61.9333 218° Southwest 430 495 38,000  Level Gander Center
Sat 12:42:00 PM 60.8333 -62.1000 219° Southwest 430 495 38,000  Level Gander Center
Sat 12:43:00 PM 60.7500 -62.3000 230° Southwest 430 495 38,000  Level Gander Center
Sat 12:44:00 PM 60.6667 -62.4333 218° Southwest 430 495 38,000  Level Gander Center
Sat 12:45:00 PM 60.5667 -62.6000 219° Southwest 430 495 38,000  Level Gander Center
Sat 12:46:00 PM 60.4833 -62.7667 225° Southwest 430 495 38,000  Level Gander Center
Sat 12:47:00 PM 60.3667 -62.9000 209° Southwest 430 495 38,000  Level Gander Center
Sat 12:48:00 PM 60.2833 -63.0667 225° Southwest 430 495 38,000  Level Gander Center
Sat 12:49:00 PM 60.2000 -63.2167 222° Southwest 430 495 38,000  Level Gander Center
Sat 12:50:00 PM 60.1000 -63.3833 220° Southwest 430 495 38,000  Level Gander Center
Sat 12:51:00 PM 60.0167 -63.5167 219° Southwest 430 495 38,000  Level Gander Center
Sat 12:52:00 PM 59.9333 -63.6667 222° Southwest 430 495 38,000  Level Gander Center
Sat 12:53:00 PM 59.8333 -63.8333 220° Southwest 430 495 38,000  Level Gander Center
Sat 12:54:00 PM 59.7333 -63.9833 217° Southwest 420 483 38,000  Level Gander Center
Sat 12:55:00 PM 59.6667 -64.1833 237° Southwest 420 483 38,000  Level Gander Center
Sat 12:56:00 PM 59.6000 -64.3667 234° Southwest 420 483 38,000  Level Gander Center
Sat 12:57:00 PM 59.5333 -64.5333 232° Southwest 420 483 38,000  Level Gander Center
Sat 12:58:00 PM 59.4667 -64.7167 234° Southwest 420 483 38,000  Level Gander Center
Sat 12:59:00 PM 59.3667 -64.8833 220° Southwest 420 483 38,000  Level Gander Center
Sat 01:00:00 PM 59.3000 -65.0667 235° Southwest 420 483 38,000  Level Gander Center
Sat 01:01:00 PM 59.2333 -65.2167 229° Southwest 420 483 38,000  Level Gander Center
Sat 01:02:00 PM 59.1500 -65.4000 228° Southwest 420 483 38,000  Level Gander Center
Sat 01:03:00 PM 59.0833 -65.6000 237° Southwest 420 483 38,000  Level Gander Center
Sat 01:04:00 PM 59.0167 -65.7500 229° Southwest 420 483 38,000  Level Gander Center
Sat 01:05:00 PM 58.9167 -65.9333 223° Southwest 420 483 38,000  Level Gander Center
Sat 01:06:00 PM 58.8500 -66.0833 229° Southwest 420 483 38,000  Level Gander Center
Sat 01:07:00 PM 58.7833 -66.2667 235° Southwest 430 495 38,000  Level Gander Center
Sat 01:08:00 PM 58.6833 -66.4500 224° Southwest 430 495 38,000  Level Gander Center
Sat 01:09:00 PM 58.6167 -66.6333 235° Southwest 430 495 38,000  Level Gander Center
Sat 01:10:00 PM 58.5333 -66.7833 223° Southwest 430 495 38,000  Level Gander Center
Sat 01:11:00 PM 58.4667 -66.9500 233° Southwest 430 495 38,000  Level Gander Center
Sat 01:12:00 PM 58.3667 -67.1333 224° Southwest 430 495 38,000  Level Gander Center
Sat 01:13:00 PM 58.3000 -67.3167 235° Southwest 430 495 38,000  Level Gander Center
Sat 01:14:00 PM 58.2333 -67.4667 230° Southwest 430 495 38,000  Level Gander Center
Sat 01:15:00 PM 58.1333 -67.6333 221° Southwest 430 495 38,000  Level Gander Center
Sat 01:16:00 PM 58.0667 -67.8167 236° Southwest 440 506 38,000  Level Gander Center
Sat 01:17:00 PM 57.9833 -67.9833 227° Southwest 440 506 38,000  Level Gander Center
Sat 01:18:00 PM 57.8833 -68.1667 224° Southwest 440 506 38,000  Level Gander Center
Sat 01:19:00 PM 57.8167 -68.3000 227° Southwest 440 506 38,000  Level Gander Center
Sat 01:20:00 PM 57.7333 -68.4833 230° Southwest 440 506 38,000  Level Gander Center
Sat 01:21:00 PM 57.6500 -68.6500 227° Southwest 440 506 38,000  Level Gander Center
Sat 01:22:00 PM 57.5667 -68.8167 227° Southwest 440 506 38,000  Level Gander Center
Sat 01:23:00 PM 57.5000 -68.9833 233° Southwest 440 506 38,000  Level Gander Center
Sat 01:24:00 PM 57.4000 -69.1500 222° Southwest 440 506 38,000  Level Gander Center
Sat 01:25:00 PM 57.3167 -69.3333 230° Southwest 440 506 38,000  Level Gander Center
Sat 01:26:00 PM 57.2333 -69.4667 221° Southwest 440 506 38,000  Level Gander Center
Sat 01:27:00 PM 57.1500 -69.6333 227° Southwest 440 506 38,000  Level Gander Center
Sat 01:28:00 PM 57.0500 -69.8333 227° Southwest 440 506 38,000  Level Gander Center
Sat 01:29:00 PM 56.9833 -69.9667 227° Southwest 440 506 38,000  Level Gander Center
Sat 01:30:00 PM 56.9000 -70.1333 228° Southwest 440 506 38,000  Level Gander Center
Sat 01:31:00 PM 56.8000 -70.2833 219° Southwest 440 506 38,000  Level Gander Center
Sat 01:32:00 PM 56.7333 -70.4500 234° Southwest 440 506 38,000  Level Gander Center
Sat 01:33:00 PM 56.6333 -70.6167 223° Southwest 440 506 38,000  Level Gander Center
Sat 01:34:00 PM 56.5500 -70.7833 228° Southwest 440 506 38,000  Level Gander Center
Sat 01:35:00 PM 56.4667 -70.9500 228° Southwest 440 506 38,000  Level Gander Center
Sat 01:36:00 PM 56.3833 -71.0667 218° Southwest 430 495 38,000  Level Gander Center
Sat 01:37:00 PM 56.2833 -71.2333 223° Southwest 440 506 38,000  Level Gander Center
Sat 01:38:00 PM 56.2000 -71.3833 225° Southwest 440 506 38,000  Level Gander Center
Sat 01:39:00 PM 56.1167 -71.5500 228° Southwest 450 518 38,000  Level Gander Center
Sat 01:40:00 PM 56.0333 -71.7000 225° Southwest 450 518 38,000  Level Gander Center
Sat 01:41:00 PM 55.9500 -71.8667 228° Southwest 450 518 38,000  Level Gander Center
Sat 01:42:00 PM 55.8500 -72.0167 220° Southwest 450 518 38,000  Level Gander Center
Sat 01:43:00 PM 55.7667 -72.1833 228° Southwest 450 518 38,000  Level Gander Center
Sat 01:44:00 PM 55.6667 -72.3333 220° Southwest 450 518 38,000  Level Gander Center
Sat 01:45:00 PM 55.5833 -72.4833 226° Southwest 450 518 38,000  Level Gander Center
Sat 01:46:00 PM 55.4833 -72.6333 220° Southwest 450 518 38,000  Level Gander Center
Sat 01:47:00 PM 55.4000 -72.8000 229° Southwest 450 518 38,000  Level Gander Center
Sat 01:48:00 PM 55.3167 -72.9333 222° Southwest 450 518 38,000  Level Gander Center
Sat 01:49:00 PM 55.2333 -73.1000 229° Southwest 460 529 38,000  Level Gander Center
Sat 01:50:00 PM 55.1333 -73.2500 221° Southwest 450 518 38,000  Level Gander Center
Sat 01:51:00 PM 55.0333 -73.3833 217° Southwest 450 518 38,000  Level Gander Center
Sat 01:52:00 PM 54.9500 -73.5500 229° Southwest 460 529 38,000  Level Gander Center
Sat 01:53:00 PM 54.8500 -73.6833 218° Southwest 460 529 38,000  Level Gander Center
Sat 01:54:00 PM 54.7667 -73.8333 226° Southwest 460 529 38,000  Level Gander Center
Sat 01:55:00 PM 54.6667 -73.9833 221° Southwest 450 518 38,000  Level Gander Center
Sat 01:56:00 PM 54.5833 -74.1333 226° Southwest 450 518 38,000  Level Gander Center
Sat 01:57:00 PM 54.4833 -74.3000 224° Southwest 450 518 38,000  Level Gander Center
Sat 01:58:00 PM 54.3833 -74.4500 221° Southwest 450 518 38,000  Level Gander Center
Sat 01:59:00 PM 54.3000 -74.6000 226° Southwest 450 518 38,000  Level Gander Center
Sat 02:00:00 PM 54.2000 -74.7167 214° Southwest 450 518 38,000  Level Gander Center
Sat 02:01:00 PM 54.1167 -74.8500 223° Southwest 450 518 38,000  Level Gander Center
Sat 02:02:00 PM 54.0167 -75.0000 221° Southwest 450 518 38,000  Level Gander Center
Sat 02:03:00 PM 53.9333 -75.1333 223° Southwest 450 518 38,000  Level Gander Center
Sat 02:04:00 PM 53.8333 -75.2833 222° Southwest 450 518 38,000  Level Gander Center
Sat 02:05:00 PM 53.7500 -75.4167 223° Southwest 450 518 38,000  Level Gander Center
Sat 02:06:00 PM 53.6500 -75.5667 222° Southwest 460 529 38,000  Level Gander Center
Sat 02:07:00 PM 53.5667 -75.7000 224° Southwest 450 518 38,000  Level Gander Center
Sat 02:08:00 PM 53.4667 -75.8333 218° Southwest 460 529 38,000  Level Gander Center
Sat 02:09:00 PM 53.3667 -75.9833 222° Southwest 460 529 38,000  Level Gander Center
Sat 02:10:00 PM 53.2500 -76.1333 218° Southwest 460 529 38,000  Level Gander Center
Sat 02:11:00 PM 53.1667 -76.2833 227° Southwest 460 529 38,000  Level Gander Center
Sat 02:12:00 PM 53.0667 -76.4167 219° Southwest 460 529 38,000  Level Gander Center
Sat 02:13:00 PM 52.9833 -76.5500 224° Southwest 460 529 38,000  Level Gander Center
Sat 02:14:00 PM 52.8833 -76.6833 219° Southwest 460 529 38,000  Level Gander Center
Sat 02:15:00 PM 52.7667 -76.8167 215° Southwest 460 529 38,000  Level Gander Center
Sat 02:16:00 PM 52.6833 -76.9500 224° Southwest 460 529 38,000  Level Gander Center
Sat 02:17:21 PM 52.5667 -77.1000 218° Southwest 450 518 38,000  Level Montreal Center
Sat 02:18:21 PM 52.4667 -77.2333 219° Southwest 460 529 38,000  Level Montreal Center
Sat 02:19:21 PM 52.3500 -77.3667 215° Southwest 460 529 38,000  Level Montreal Center
Sat 02:20:21 PM 52.2500 -77.5000 219° Southwest 460 529 38,000  Level Montreal Center
Sat 02:21:21 PM 52.1500 -77.6333 219° Southwest 460 529 38,000  Level Montreal Center
Sat 02:22:21 PM 52.0667 -77.7667 225° Southwest 460 529 38,000  Level Montreal Center
Sat 02:23:21 PM 51.9667 -77.9000 219° Southwest 460 529 38,000  Level Montreal Center
Sat 02:24:21 PM 51.8500 -78.0333 215° Southwest 460 529 38,000  Level Montreal Center
Sat 02:25:21 PM 51.7667 -78.1667 225° Southwest 460 529 38,000  Level Montreal Center
Sat 02:26:21 PM 51.6667 -78.3000 220° Southwest 460 529 38,000  Level Montreal Center
Sat 02:27:21 PM 51.5667 -78.4333 220° Southwest 460 529 38,000  Level Montreal Center
Sat 02:28:21 PM 51.4667 -78.5667 220° Southwest 470 541 38,000  Level Montreal Center
Sat 02:29:21 PM 51.3500 -78.6833 212° Southwest 470 541 38,000  Level Montreal Center
Sat 02:30:21 PM 51.2667 -78.8500 231° Southwest 460 529 38,000  Level Montreal Center
Sat 02:31:21 PM 51.1667 -78.9667 216° Southwest 460 529 38,000  Level Montreal Center
Sat 02:32:21 PM 51.0667 -79.1000 220° Southwest 460 529 38,000  Level Montreal Center
Sat 02:33:21 PM 50.9500 -79.2167 212° Southwest 470 541 38,000  Level Montreal Center
Sat 02:34:21 PM 50.8500 -79.3500 220° Southwest 460 529 38,000  Level Montreal Center
Sat 02:35:21 PM 50.7500 -79.4833 220° Southwest 460 529 38,000  Level Montreal Center
Sat 02:36:21 PM 50.6333 -79.6000 212° Southwest 460 529 38,000  Level Montreal Center
Sat 02:37:21 PM 50.5500 -79.7333 225° Southwest 470 541 38,000  Level Montreal Center
Sat 02:38:21 PM 50.4500 -79.8500 217° Southwest 460 529 38,000  Level Montreal Center
Sat 02:39:21 PM 50.3500 -79.9667 217° Southwest 470 541 38,000  Level Montreal Center
Sat 02:40:21 PM 50.2333 -80.1000 216° Southwest 470 541 38,000  Level Montreal Center
Sat 02:41:21 PM 50.1333 -80.2500 224° Southwest 470 541 38,000  Level Montreal Center
Sat 02:42:21 PM 50.0333 -80.3667 217° Southwest 470 541 38,000  Level Montreal Center
Sat 02:43:21 PM 49.9167 -80.4833 213° Southwest 470 541 38,000  Level Montreal Center
Sat 02:44:21 PM 49.8333 -80.6167 226° Southwest 470 541 38,000  Level Montreal Center
Sat 02:45:21 PM 49.7000 -80.7333 210° Southwest 470 541 38,000  Level Montreal Center
Sat 02:46:21 PM 49.6167 -80.8500 222° Southwest 470 541 38,000  Level Montreal Center
Sat 02:46:59 PM 49.5333 -80.9167 207° Southwest 470 541 38,000  Level Toronto Center
Sat 02:47:59 PM 49.4333 -81.0167 213° Southwest 470 541 38,000  Level Toronto Center
Sat 02:48:59 PM 49.3333 -81.1333 217° Southwest 470 541 38,000  Level Toronto Center
Sat 02:49:59 PM 49.2333 -81.2667 221° Southwest 480 552 38,000  Level Toronto Center
Sat 02:50:59 PM 49.1167 -81.3833 213° Southwest 480 552 38,000  Level Toronto Center
Sat 02:51:59 PM 49.0167 -81.5167 221° Southwest 480 552 38,000  Level Toronto Center
Sat 02:52:59 PM 48.9167 -81.6333 217° Southwest 470 541 38,000  Level Toronto Center
Sat 02:53:59 PM 48.8167 -81.7500 218° Southwest 470 541 38,000  Level Toronto Center
Sat 02:54:59 PM 48.7167 -81.8500 213° Southwest 470 541 38,000  Level Toronto Center
Sat 02:55:59 PM 48.6000 -81.9667 213° Southwest 470 541 38,000  Level Toronto Center
Sat 02:56:59 PM 48.5000 -82.1000 221° Southwest 470 541 38,000  Level Toronto Center
Sat 02:57:59 PM 48.3833 -82.2167 214° Southwest 470 541 38,000  Level Toronto Center
Sat 02:58:59 PM 48.2833 -82.3333 218° Southwest 460 529 38,000  Level Toronto Center
Sat 02:59:59 PM 48.1833 -82.4500 218° Southwest 470 541 38,000  Level Toronto Center
Sat 03:00:59 PM 48.0833 -82.5500 214° Southwest 470 541 38,000  Level Toronto Center
Sat 03:01:59 PM 47.9833 -82.6667 218° Southwest 470 541 38,000  Level Toronto Center
Sat 03:02:59 PM 47.8667 -82.7833 214° Southwest 470 541 38,000  Level Toronto Center
Sat 03:08:38 PM 47.2710 -83.4370 214° Southwest 477 549 38,000  Level FlightAware ADS-B
Sat 03:09:10 PM 47.2100 -83.5000 215° Southwest 479 551 38,000  Level FlightAware ADS-B
Sat 03:09:47 PM 47.1530 -83.5590 215° Southwest 479 551 38,000  Level FlightAware ADS-B
Sat 03:10:23 PM 47.0780 -83.6380 216° Southwest 479 551 38,000  Level FlightAware ADS-B
Sat 03:10:55 PM 47.0200 -83.6970 215° Southwest 480 552 38,000  Level FlightAware ADS-B
Sat 03:11:31 PM 46.9560 -83.7630 215° Southwest 481 554 38,000  Level FlightAware ADS-B
Sat 03:11:59 PM 46.9030 -83.8170 215° Southwest 482 555 38,000  Level FlightAware ADS-B
Sat 03:12:34 PM 46.8400 -83.8820 215° Southwest 483 556 38,000  Level FlightAware ADS-B
Sat 03:13:16 PM 46.7620 -83.9620 215° Southwest 484 557 38,000  Level FlightAware ADS-B
Sat 03:13:52 PM 46.6970 -84.0270 214° Southwest 486 559 38,000  Level FlightAware ADS-B
Sat 03:14:27 PM 46.6320 -84.0940 215° Southwest 487 560 38,000  Level FlightAware ADS-B
Sat 03:14:59 PM 46.5720 -84.1540 215° Southwest 489 563 38,000  Level FlightAware ADS-B
Sat 03:15:35 PM 46.5070 -84.2190 215° Southwest 489 563 38,000  Level FlightAware ADS-B
Sat 03:16:12 PM 46.4370 -84.2880 214° Southwest 493 567 38,000  Level FlightAware ADS-B
Sat 03:16:40 PM 46.3770 -84.3260 204° Southwest 506 582 38,000  Level FlightAware ADS-B
Sat 03:17:12 PM 46.3050 -84.3520 194° South 511 588 38,000  Level FlightAware ADS-B
Sat 03:17:48 PM 46.2200 -84.3820 194° South 512 589 38,000  Level FlightAware ADS-B
Sat 03:18:24 PM 46.1380 -84.4090 193° South 512 589 38,000  Level FlightAware ADS-B
Sat 03:19:00 PM 46.0540 -84.4380 193° South 514 592 38,000  Level FlightAware ADS-B
Sat 03:19:32 PM 45.9810 -84.4630 193° South 515 593 38,000  Level FlightAware ADS-B
Sat 03:20:06 PM 45.9010 -84.4910 194° South 515 593 38,000  Level FlightAware ADS-B
Sat 03:20:42 PM 45.8190 -84.5190 193° South 515 593 38,000  Level FlightAware ADS-B
Sat 03:21:18 PM 45.7360 -84.5470 193° South 506 582 38,000  Level FlightAware ADS-B
Sat 03:21:54 PM 45.6560 -84.5740 193° South 500 575 38,000  Level FlightAware ADS-B
Sat 03:22:31 PM 45.5720 -84.6030 194° South 496 571 38,000  Level FlightAware ADS-B
Sat 03:23:03 PM 45.5010 -84.6270 193° South 496 571 38,000  Level FlightAware ADS-B
Sat 03:23:41 PM 45.4170 -84.6550 193° South 496 571 38,000  Level FlightAware ADS-B
Sat 03:24:13 PM 45.3430 -84.6790 193° South 496 571 38,000  Level FlightAware ADS-B
Sat 03:24:49 PM 45.2630 -84.7060 193° South 497 572 38,000  Level FlightAware ADS-B
Sat 03:25:25 PM 45.1830 -84.7330 193° South 497 572 38,000  Level FlightAware ADS-B
Sat 03:26:02 PM 45.1030 -84.7600 193° South 497 572 38,000  Level FlightAware ADS-B
Sat 03:26:33 PM 45.0320 -84.7830 193° South 498 573 38,000  Level FlightAware ADS-B
Sat 03:27:07 PM 44.9550 -84.8080 193° South 499 574 38,000  Level FlightAware ADS-B
Sat 03:27:45 PM 44.8700 -84.8360 193° South 499 574 38,000  Level FlightAware ADS-B
Sat 03:28:18 PM 44.7970 -84.8610 194° South 499 574 38,000  Level FlightAware ADS-B
Sat 03:28:54 PM 44.7180 -84.8860 193° South 499 574 38,000  Level FlightAware ADS-B
Sat 03:29:30 PM 44.6340 -84.9140 193° South 499 574 38,000 -623 Level FlightAware ADS-B
Sat 03:30:11 PM 44.5420 -84.9440 193° South 507 583 37,200 -1,440 Descending FlightAware ADS-B
Sat 03:30:45 PM 44.4620 -84.9700 193° South 516 594 36,200 -1,606 Descending FlightAware ADS-B
Sat 03:31:22 PM 44.3770 -84.9970 193° South 520 598 35,300 -1,304 Descending FlightAware ADS-B
Sat 03:31:54 PM 44.3000 -85.0220 193° South 520 598 34,700 -1,200 Descending FlightAware ADS-B
Sat 03:32:32 PM 44.2120 -85.0500 193° South 520 598 33,900 -1,217 Descending FlightAware ADS-B
Sat 03:33:03 PM 44.1400 -85.0730 193° South 521 600 33,300 -1,182 Descending FlightAware ADS-B
Sat 03:33:38 PM 44.0590 -85.0990 193° South 521 600 32,600 -1,083 Descending FlightAware ADS-B
Sat 03:34:15 PM 43.9710 -85.1270 193° South 515 593 32,000 -480 Descending FlightAware ADS-B
Sat 03:34:53 PM 43.8830 -85.1550 193° South 508 585 32,000  Level FlightAware ADS-B
Sat 03:35:27 PM 43.8060 -85.1800 193° South 509 586 32,000  Level FlightAware ADS-B
Sat 03:36:03 PM 43.7230 -85.2060 193° South 511 588 32,000  Level FlightAware ADS-B
Sat 03:36:33 PM 43.6530 -85.2280 193° South 511 588 32,000  Level FlightAware ADS-B
Sat 03:37:07 PM 43.5740 -85.2530 193° South 510 587 32,000  Level FlightAware ADS-B
Sat 03:37:47 PM 43.4850 -85.2870 195° South 502 578 32,000  Level FlightAware ADS-B
Sat 03:38:15 PM 43.4300 -85.3300 210° Southwest 490 564 32,000  Level FlightAware ADS-B
Sat 03:38:35 PM 43.3970 -85.3720 223° Southwest 480 552 32,000  Level FlightAware ADS-B
Sat 03:39:12 PM 43.3490 -85.4600 233° Southwest 475 547 32,000 -696 Level FlightAware ADS-B
Sat 03:39:44 PM 43.3080 -85.5380 234° Southwest 466 536 31,200 -1,881 Descending FlightAware ADS-B
Sat 03:40:19 PM 43.2630 -85.6230 234° Southwest 459 528 29,900 -2,028 Descending FlightAware ADS-B
Sat 03:40:55 PM 43.2200 -85.7050 234° Southwest 469 540 28,800 -1,853 Descending FlightAware ADS-B
Sat 03:41:27 PM 43.1790 -85.7830 234° Southwest 466 536 27,800 -1,909 Descending FlightAware ADS-B
Sat 03:42:01 PM 43.1350 -85.8640 233° Southwest 462 532 26,700 -1,865 Descending FlightAware ADS-B
Sat 03:42:41 PM 43.0850 -85.9570 234° Southwest 453 521 25,500 -1,886 Descending FlightAware ADS-B
Sat 03:43:11 PM 43.0480 -86.0270 234° Southwest 450 518 24,500 -1,268 Descending FlightAware ADS-B
Sat 03:43:52 PM 43.0000 -86.1160 234° Southwest 435 501 24,000 -405 Descending FlightAware ADS-B
Sat 03:44:25 PM 42.9600 -86.1900 234° Southwest 441 507 24,000  Level FlightAware ADS-B
Sat 03:44:59 PM 42.9180 -86.2690 234° Southwest 444 511 24,000 -943 Level FlightAware ADS-B
Sat 03:45:35 PM 42.8750 -86.3480 233° Southwest 435 501 22,900 -2,167 Descending FlightAware ADS-B
Sat 03:46:11 PM 42.8310 -86.4280 233° Southwest 427 491 21,400 -2,250 Descending FlightAware ADS-B
Sat 03:46:47 PM 42.7900 -86.5030 233° Southwest 429 494 20,200 -1,765 Descending FlightAware ADS-B
Sat 03:47:19 PM 42.7510 -86.5750 234° Southwest 422 486 19,400 -1,941 Descending FlightAware ADS-B
Sat 03:47:55 PM 42.7100 -86.6500 233° Southwest 416 479 18,000 -2,250 Descending FlightAware ADS-B
Sat 03:48:31 PM 42.6690 -86.7250 233° Southwest 403 464 16,700 -2,294 Descending FlightAware ADS-B
Sat 03:49:03 PM 42.6330 -86.7900 233° Southwest 398 458 15,400 -2,294 Descending FlightAware ADS-B
Sat 03:49:39 PM 42.5940 -86.8600 233° Southwest 389 448 14,100 -2,219 Descending FlightAware ADS-B
Sat 03:50:16 PM 42.5560 -86.9300 234° Southwest 380 437 12,700 -1,917 Descending FlightAware ADS-B
Sat 03:50:51 PM 42.5190 -86.9970 233° Southwest 363 418 11,800 -1,254 Descending FlightAware ADS-B
Sat 03:51:23 PM 42.4880 -87.0530 233° Southwest 336 387 11,300 -706 Descending FlightAware ADS-B
Sat 03:51:59 PM 42.4570 -87.1120 235° Southwest 295 339 11,000 -1,250 Descending FlightAware ADS-B
Sat 03:52:35 PM 42.4380 -87.1690 246° West 282 325 9,800 -2,160 Descending FlightAware ADS-B
Sat 03:52:49 PM 42.4260 -87.1870 228° Southwest 283 326 9,200 -2,182 Descending FlightAware ADS-B
Sat 03:52:57 PM 42.4160 -87.1950 211° Southwest 292 336 9,000 -1,200 Descending FlightAware ADS-B
Sat 03:53:09 PM 42.4010 -87.2010 196° South 293 337 8,800 -353 Descending FlightAware ADS-B
Sat 03:53:31 PM 42.3750 -87.2110 196° South 290 334 8,800 -286 Level FlightAware ADS-B
Sat 03:53:51 PM 42.3480 -87.2210 195° South 288 331 8,600 -1,000 Descending FlightAware ADS-B
Sat 03:54:13 PM 42.3180 -87.2320 195° South 285 328 8,100 -1,364 Descending FlightAware ADS-B
Sat 03:54:35 PM 42.2900 -87.2430 196° South 283 326 7,600 -1,227 Descending FlightAware ADS-B
Sat 03:54:57 PM 42.2640 -87.2530 196° South 278 320 7,200 -1,167 Descending FlightAware ADS-B
Sat 03:55:11 PM 42.2460 -87.2610 198° South 276 318 6,900 -571 Descending FlightAware ADS-B
Sat 03:55:39 PM 42.2130 -87.2800 203° Southwest 274 315 6,800 -125 Descending FlightAware ADS-B
Sat 03:55:59 PM 42.1910 -87.2950 207° Southwest 274 315 6,800  Level FlightAware ADS-B
Sat 03:56:19 PM 42.1680 -87.3100 206° Southwest 275 316 6,800 -450 Level FlightAware ADS-B
Sat 03:56:39 PM 42.1450 -87.3250 206° Southwest 271 312 6,500 -1,091 Descending FlightAware ADS-B
Sat 03:57:03 PM 42.1190 -87.3420 206° Southwest 269 310 6,000 -955 Descending FlightAware ADS-B
Sat 03:57:23 PM 42.0950 -87.3570 205° Southwest 266 306 5,800 -300 Descending FlightAware ADS-B
Sat 03:57:43 PM 42.0730 -87.3720 207° Southwest 266 306 5,800  Level FlightAware ADS-B
Sat 03:58:03 PM 42.0510 -87.3860 205° Southwest 267 307 5,800  Level FlightAware ADS-B
Sat 03:58:23 PM 42.0300 -87.4000 206° Southwest 267 307 5,800  Level FlightAware ADS-B
Sat 03:58:31 PM 42.0210 -87.4080 213° Southwest 267 307 5,800  Level FlightAware ADS-B
Sat 03:58:39 PM 42.0150 -87.4190 234° Southwest 267 307 5,800  Level FlightAware ADS-B
Sat 03:58:53 PM 42.0050 -87.4390 236° Southwest 267 307 5,800  Level FlightAware ADS-B
Sat 03:59:13 PM 41.9920 -87.4670 238° Southwest 268 308 5,800  Level FlightAware ADS-B
Sat 03:59:21 PM 41.9880 -87.4790 246° West 262 302 5,800  Level FlightAware ADS-B
Sat 03:59:41 PM 41.9830 -87.5090 257° West 244 281 5,800  Level FlightAware ADS-B
Sat 03:59:59 PM 41.9820 -87.5360 267° West 227 261 5,800 -558 Level FlightAware ADS-B
Sat 04:00:24 PM 41.9830 -87.5690 272° West 225 259 5,400 -1,029 Descending FlightAware ADS-B
Sat 04:00:34 PM 41.9830 -87.5830 270° West 225 259 5,200 -1,029 Descending FlightAware ADS-B
Sat 04:00:59 PM 41.9840 -87.6170 272° West 218 251 4,800 -933 Descending FlightAware ADS-B
Sat 04:01:19 PM 41.9840 -87.6410 270° West 216 249 4,500 -857 Descending FlightAware ADS-B
Sat 04:01:41 PM 41.9840 -87.6710 270° West 206 237 4,200 -1,059 Descending FlightAware ADS-B
Sat 04:01:53 PM 41.9840 -87.6860 270° West 197 227 3,900 -1,459 Descending FlightAware ADS-B
Sat 04:02:18 PM 41.9840 -87.7130 270° West 185 213 3,300 -1,773 Descending FlightAware ADS-B
Sat 04:02:37 PM 41.9840 -87.7380 270° West 179 206 2,600 -1,404 Descending FlightAware ADS-B
Sat 04:03:05 PM 41.9840 -87.7710 270° West 193 222 2,200 -960 Descending FlightAware ADS-B
Sat 04:03:27 PM 41.9840 -87.7950 270° West 177 204 1,800 -1,000 Descending FlightAware ADS-B
Sat 04:03:41 PM 41.9840 -87.8090 270° West 168 193 1,600 -732 Descending FlightAware ADS-B
Sat 04:04:08 PM 41.9840 -87.8350 270° West 145 167 1,300 -766 Descending FlightAware ADS-B
Sat 04:04:28 PM 41.9840 -87.8520 270° West 147 169 1,000 -750 Descending FlightAware ADS-B
Sat 04:04:48 PM 41.9840 -87.8710 270° West 146 168 800 -818 Descending FlightAware ADS-B
Sat 04:05:12 PM 41.9840 -87.8930 270° West 142 163 400 -1,000 Descending FlightAware ADS-B

Login

Don't have an account? Register now (free) for customized features, flight alerts, and more!